CYZU

Details ICAO CYZU (YZU)
Name WHITECOURT
Region Canada
Timezone America/Edmonton (UTC-6.0)
Plans Departing 2
Arriving 1
Stats Elevation 2,567 ft / 782 m (AMSL)
Location 54.143887° -115.786670°
Runways 1
Magnetic Variation 15.374° E
Sunrise 2018-05-22 11:30:00 UTC / 2018-05-22 05:30:00 Local
Sunset 2018-05-23 03:52:32 UTC / 2018-05-22 21:52:32 Local
Advertisement - Login to hide

Runways

ID Width Length Bearing (true) Bearing (mag) Surface Threshold Offset Overrun Length
11 100 ft / 30 m 5,787 ft / 1,764 m 125.05° 109.68° Asphalt 0 ft / 0 m 0 ft / 0 m
29 100 ft / 30 m 5,787 ft / 1,764 m 305.07° 289.70° Asphalt 0 ft / 0 m 0 ft / 0 m

Map

Weather


0- 5 10 15 20 25 30 35+ Temperature / ° C

Clouds and Precipitation
Forecast for 2018-05-22 12:00 UTC. Updated 5 hours ago

Ground ~20,000 ft ~40,000 ft Winds

METAR

CYZU 221600Z VRB02KT 15SM FEW210 17/07 A2999 RMK CI1 SLP158 DENSITY ALT 3400FT

TAF

TAF CYZU 221410Z 2214/2223 33004KT P6SM SKC BECMG 2214/2216 14006KT RMK NXT FCST BY 221900Z

Frequencies

Tower 122.30 MHz MF WHITECOURT RDO
Warning: Do not use this data for real-world aviation or navigation. No guarantee of current accuracy is given.